Friday, May 25, 2018, 8:55 AM EDT
Back to Local

KCON, Concord, Concord Municipal Airport

Location: Concord, NH, United States Lat: 43.195
Local Time: 8:55 AM EDT (12:55 GMT) Lon: -71.501
Time Zone: US/Eastern Elev: 344 ft

Show me the last for .
Show Decoded

2018-05-25 07:51 METAR KCON 251151Z AUTO 11004KT 10SM CLR 18/11 A2990 RMK AO2 SLP126 T01830106
                 10183 20078 58008 =
2018-05-25 06:51 METAR KCON 251051Z AUTO 15005KT 10SM CLR 14/11 A2992 RMK AO2 SLP130 T01440106 =
2018-05-25 05:51 METAR KCON 250951Z AUTO 15005KT 10SM CLR 09/07 A2993 RMK AO2 SLP133 T00890072 =
2018-05-25 04:51 METAR KCON 250851Z AUTO 00000KT 10SM CLR 08/07 A2993 RMK AO2 SLP134 T00830072
                 56014 =
2018-05-25 03:51 METAR KCON 250751Z AUTO 00000KT 10SM CLR 09/08 A2994 RMK AO2 SLP138 T00940078 =
2018-05-25 02:51 METAR KCON 250651Z AUTO 16003KT 10SM CLR 11/09 A2995 RMK AO2 SLP141 T01060089 =
2018-05-25 01:51 METAR KCON 250551Z AUTO 16003KT 10SM CLR 12/09 A2997 RMK AO2 SLP148 T01220094
                 10206 20111 58014 =
2018-05-25 00:51 METAR KCON 250451Z AUTO 00000KT 10SM CLR 13/09 A2999 RMK AO2 SLP155 T01280094
                 402500083 =
2018-05-24 23:51 METAR KCON 250351Z AUTO 15005KT 10SM CLR 14/10 A3000 RMK AO2 SLP160 T01440100 =
2018-05-24 22:51 METAR KCON 250251Z AUTO 18005KT 10SM CLR 15/09 A3001 RMK AO2 SLP162 T01500094
                 58001 =
2018-05-24 21:51 METAR KCON 250151Z AUTO 13003KT 10SM CLR 14/07 A3003 RMK AO2 SLP168 T01440067 =
2018-05-24 20:51 METAR KCON 250051Z AUTO 00000KT 10SM CLR 16/07 A3002 RMK AO2 SLP165 T01610067 =
2018-05-24 19:51 METAR KCON 242351Z AUTO 00000KT 10SM CLR 21/04 A3001 RMK AO2 SLP163 T02060044
                 10250 20206 55006 =
2018-05-24 18:51 METAR KCON 242251Z AUTO 27004KT 10SM CLR 24/01 A3001 RMK AO2 SLP162 T02390011 =
2018-05-24 17:51 METAR KCON 242151Z AUTO 30011G19KT 10SM CLR 24/01 A3003 RMK AO2 SLP169 T02440006
                 =
2018-05-24 16:51 METAR KCON 242051Z AUTO 32013KT 10SM CLR 24/00 A3003 RMK AO2 SLP170 T02440000
                 56017 =
2018-05-24 15:51 METAR KCON 241951Z AUTO 33012G15KT 10SM CLR 24/01 A3005 RMK AO2 SLP175 T02440006
                 =
2018-05-24 14:51 METAR KCON 241851Z AUTO 32014G18KT 10SM CLR 23/01 A3007 RMK AO2 SLP181 T02330006
                 =
2018-05-24 13:51 METAR KCON 241751Z AUTO 29019G22KT 10SM CLR 23/01 A3008 RMK AO2 SLP186 T02280011
                 10233 20144 58010 =
2018-05-24 12:51 METAR KCON 241651Z AUTO 32010G18KT 290V360 10SM CLR 22/01 A3010 RMK AO2 SLP192
                 T02220011 =
2018-05-24 11:51 METAR KCON 241551Z AUTO 31007KT 10SM BKN080 19/00 A3011 RMK AO2 SLP196 T01940000
                 =
2018-05-24 10:51 METAR KCON 241451Z AUTO 31006KT 10SM FEW095 20/01 A3011 RMK AO2 SLP196 T02000011
                 51006 =
2018-05-24 09:51 METAR KCON 241351Z AUTO 31009KT 10SM OVC095 18/01 A3011 RMK AO2 SLP194 T01830011
                 =

Support USWX by starting your Amazon purchase here.